M I D A S
Marine Information and Data Acquisition System
Tripno 224 of the Zeeleeuw from 2002-03-01 07:40:00 to 2002-03-01 16:05:00
Back to CruiseResearch ActivitiesStationsMapUnderway DataData graphs

EquipmentUnitsComment
TimeDGPSUTC
LatitudeDGPSDM.mWGS84
LongitudeDGPSDM.mWGS84
HeadingGyrodeg 
SOGDGPSknotsSpeed over ground
COGDGPSdegCourse over ground
DepthEcho soundermeters200 kHz
Missing or incorrect values are displayed as -999
Navigation data collected by the RV Zeeleeuw from 2002-03-01 07:40:00 to 2002-03-01 16:05:00
Time Latitude Longitude Heading SOG COG Depth
2002-03-01 07:50:00 51°14.388 2°55.029 314 9.5 308.5 8.3
2002-03-01 07:50:59 51°14.485 2°54.792 309.3 12.1 301.2 8.2
2002-03-01 07:52:00 51°14.651 2°54.577 342.8 12.9 332.8 7.7
2002-03-01 07:53:00 51°14.856 2°54.509 6.5 12.5 357.5 7.5
2002-03-01 07:54:00 51°15.054 2°54.536 14.8 11.4 7.2 6.3
2002-03-01 07:55:00 51°15.242 2°54.575 6.5 11.7 358.4 6.5
2002-03-01 07:56:00 51°15.432 2°54.472 352 12.4 343.1 7.2
2002-03-01 07:57:00 51°15.638 2°54.432 8 12.6 358.4 7.8
2002-03-01 07:58:00 51°15.849 2°54.426 1.3 13 353.3 8.5
2002-03-01 07:59:00 51°16.042 2°54.418 20.8 9 10 9.5
2002-03-01 08:00:00 51°16.124 2°54.48 41 4 30.7 9.6
2002-03-01 08:01:00 51°16.165 2°54.519 39.3 2.3 27.1 9.6
2002-03-01 08:02:00 51°16.194 2°54.534 28.8 1.6 9.4 9.5
2002-03-01 08:03:00 51°16.215 2°54.534 24.7 1.2 352.4 9.6
2002-03-01 08:04:00 51°16.233 2°54.527 21 1 342.4 9.6
2002-03-01 08:05:00 51°16.246 2°54.517 20 0.9 329.9 9.7
2002-03-01 08:06:00 51°16.258 2°54.505 17 0.8 324.5 9.7
2002-03-01 08:06:59 51°16.266 2°54.491 14.2 0.7 314.5 9.8
2002-03-01 08:07:59 51°16.274 2°54.475 10.5 0.8 301.4 9.8
2002-03-01 08:08:59 51°16.279 2°54.456 2.7 0.9 292.3 9.8
2002-03-01 08:09:59 51°16.284 2°54.435 355.5 0.9 288.1 9.8
2002-03-01 08:11:00 51°16.287 2°54.41 350 1 281 9.9
2002-03-01 08:12:00 51°16.289 2°54.384 344.7 0.9 278.4 9.9
2002-03-01 08:13:00 51°16.291 2°54.36 345.2 0.9 275 9.9
2002-03-01 08:14:00 51°16.291 2°54.335 339.3 1 271.6 9.9
2002-03-01 08:15:00 51°16.291 2°54.307 334 1.1 269.2 10
2002-03-01 08:16:00 51°16.29 2°54.279 329.2 1.1 266.1 10
2002-03-01 08:17:00 51°16.288 2°54.252 324.8 1.1 262.7 10.1
2002-03-01 08:18:00 51°16.286 2°54.222 321.3 1.1 263.1 10
2002-03-01 08:19:00 51°16.283 2°54.192 319.3 1.2 262.1 10.1
2002-03-01 08:20:00 51°16.28 2°54.162 318.5 1.1 260.8 10.1
2002-03-01 08:21:00 51°16.278 2°54.134 319.7 1.1 261.2 10.1
2002-03-01 08:22:00 51°16.275 2°54.105 319.8 1.1 261.7 10.1
2002-03-01 08:23:00 51°16.272 2°54.077 320.2 1.1 262 10
2002-03-01 08:23:59 51°16.269 2°54.049 321.8 1.1 263.6 10.2
2002-03-01 08:25:00 51°16.266 2°54.02 323.5 1.1 263 10.2
2002-03-01 08:26:00 51°16.332 2°53.898 326 10.9 314.5 10.2
2002-03-01 08:26:59 51°16.484 2°53.668 327.8 13.5 316.7 10.4
2002-03-01 08:28:00 51°16.655 2°53.429 328.3 13.5 319.5 9.9
2002-03-01 08:29:00 51°16.823 2°53.197 326.2 13.3 318.2 9.1
2002-03-01 08:29:59 51°16.973 2°52.995 332.2 11.6 323.1 6.5
2002-03-01 08:31:00 51°17.145 2°52.813 339.2 12.7 330 8.1
2002-03-01 08:32:00 51°17.331 2°52.668 331.2 12.5 322.9 7.8
2002-03-01 08:32:59 51°17.416 2°52.355 292.5 13.6 284.1 8.5
2002-03-01 08:33:59 51°17.436 2°51.99 279.2 13.8 270.9 8.6
2002-03-01 08:34:59 51°17.293 2°51.736 197.8 13.9 195.6 9.4
2002-03-01 08:35:59 51°17.074 2°51.824 152.8 13.7 154.2 9.2
2002-03-01 08:36:59 51°16.869 2°51.997 149.7 14.1 150.8 8.4
2002-03-01 08:37:59 51°16.668 2°52.177 150.8 14.4 151 8.6
2002-03-01 08:38:59 51°16.467 2°52.372 145.3 14 146.1 10.1
2002-03-01 08:39:59 51°16.275 2°52.58 146.2 13.8 147.5 10.9
2002-03-01 08:40:59 51°16.083 2°52.785 144 13.8 145.1 10.7
2002-03-01 08:41:59 51°15.896 2°52.988 142.5 13.4 144.9 10.3
2002-03-01 08:43:00 51°15.712 2°53.205 142.2 13.6 144.1 9.7
2002-03-01 08:43:59 51°15.537 2°53.419 141.3 13.6 142.2 9.2
2002-03-01 08:44:59 51°15.362 2°53.639 140.5 13.3 141 8.3
2002-03-01 08:45:59 51°15.19 2°53.862 140.3 13.2 140.7 7.6
2002-03-01 08:46:59 51°15.024 2°54.086 138.7 12.9 138.9 7.1
2002-03-01 08:47:59 51°14.879 2°54.291 134 10.2 135.1 7.8
2002-03-01 08:48:59 51°14.776 2°54.447 136.3 7.5 137.8 8.2
2002-03-01 08:49:59 51°14.691 2°54.572 134.7 6.6 137.4 8.4
2002-03-01 08:50:59 51°14.616 2°54.689 132.7 6.1 133.1 8.2
2002-03-01 08:52:00 51°14.553 2°54.784 133.7 4.2 136.5 8.4
2002-03-01 08:52:59 51°14.512 2°54.842 134.3 2.9 139 8.5
2002-03-01 08:53:59 51°14.479 2°54.884 132.8 2.4 140.5 8.5
2002-03-01 08:55:00 51°14.456 2°54.909 123.8 0.4 202.4 8.6
2002-03-01 08:55:59 51°14.465 2°54.937 65.3 4.9 61.1 8.4
2002-03-01 08:56:59 51°14.566 2°54.969 356.5 8.9 346.8 8
2002-03-01 08:57:59 51°14.717 2°54.876 345 9.9 334.9 8
2002-03-01 08:58:59 51°14.855 2°54.741 334.3 8.9 324.3 7.9
2002-03-01 08:59:59 51°14.941 2°54.607 321 6.6 309.7 7.8
2002-03-01 09:01:00 51°14.999 2°54.466 311.8 6.1 299 7.3
2002-03-01 09:02:00 51°15.015 2°54.328 272 4.7 260.2 7.4
2002-03-01 09:03:00 51°14.983 2°54.24 233.3 3.5 227.5 7.5
2002-03-01 09:03:59 51°14.94 2°54.198 197.2 2.8 201.4 7.6
2002-03-01 09:04:59 51°14.898 2°54.19 161.5 2.3 176.5 8.1
2002-03-01 09:06:00 51°14.865 2°54.206 132.7 2 152.9 8.2
2002-03-01 09:07:00 51°14.833 2°54.235 132.7 2.2 149.5 8.7
2002-03-01 09:07:59 51°14.801 2°54.268 130.7 2.4 145.3 9
2002-03-01 09:09:00 51°14.767 2°54.307 129.8 2.5 142.4 9.2
2002-03-01 09:10:00 51°14.733 2°54.347 128.3 2.5 142.2 9.1
2002-03-01 09:11:00 51°14.701 2°54.39 125.3 2.4 133 9.1
2002-03-01 09:11:59 51°14.676 2°54.436 122.3 2.3 130.3 9.1
2002-03-01 09:13:00 51°14.65 2°54.482 121.8 2.2 131.7 9
2002-03-01 09:14:00 51°14.625 2°54.526 122 2.2 131.6 8.9
2002-03-01 09:14:59 51°14.601 2°54.569 121.2 2.1 128.4 9
2002-03-01 09:16:00 51°14.579 2°54.611 118.7 1.9 127.5 9
2002-03-01 09:17:00 51°14.562 2°54.65 116.5 1.8 125.7 9
2002-03-01 09:18:00 51°14.547 2°54.687 113 1.6 119.9 8.9
2002-03-01 09:19:00 51°14.534 2°54.722 108 1.5 117.3 9
2002-03-01 09:20:00 51°14.524 2°54.758 103.3 1.5 110.5 9
2002-03-01 09:21:00 51°14.553 2°54.804 18.5 4.9 8.3 8.6
2002-03-01 09:22:00 51°14.588 2°54.648 251.8 8.4 249.2 8.8
2002-03-01 09:23:00 51°14.472 2°54.661 119.8 8.8 123.4 9.3
2002-03-01 09:24:00 51°14.408 2°54.912 113 10.8 111.9 9
2002-03-01 09:25:00 51°14.328 2°55.151 126.8 9.2 122.2 9.5
2002-03-01 09:26:00 51°14.24 2°55.295 143.7 7.3 140.1 9.4
2002-03-01 09:27:00 51°14.124 2°55.405 156 8.3 153.2 9.2
2002-03-01 09:28:00 51°13.996 2°55.5 158.8 8.6 155.1 9
2002-03-01 09:29:00 51°13.93 2°55.616 93.3 5.3 88 8.8
2002-03-01 09:30:00 51°13.948 2°55.665 46.5 1.4 222.9 -999
2002-03-01 09:31:01 51°13.951 2°55.643 5.5 3.5 6 -999
2002-03-01 09:32:00 51°14.047 2°55.521 321.8 8.6 318.5 9.2
2002-03-01 09:32:59 51°14.164 2°55.38 327.7 9.6 323.9 9.3
2002-03-01 09:34:00 51°14.285 2°55.208 320.2 8.8 314.9 9.4
2002-03-01 09:35:00 51°14.378 2°55.015 300.5 11 297 8.9
2002-03-01 09:35:59 51°14.366 2°54.701 251.7 13.3 247.8 8.6
2002-03-01 09:37:00 51°14.257 2°54.372 249.3 13.9 245 7.7
2002-03-01 09:38:00 51°14.156 2°54.038 248.5 14.1 243.4 7.8
2002-03-01 09:39:00 51°14.05 2°53.701 248.2 14.2 243.5 7.9
2002-03-01 09:40:00 51°13.943 2°53.362 248.5 14.4 243.3 8.2
2002-03-01 09:41:00 51°13.835 2°53.018 248.2 14.6 243.5 8.5
2002-03-01 09:42:00 51°13.725 2°52.67 248.3 14.8 243.1 9
2002-03-01 09:43:00 51°13.614 2°52.32 247.5 14.8 243 9.4
2002-03-01 09:43:59 51°13.506 2°51.974 248.5 14.8 243.9 9.5
2002-03-01 09:45:00 51°13.395 2°51.615 248.3 14.8 243.4 9.4
2002-03-01 09:46:00 51°13.283 2°51.262 247.8 15 242.5 9.6
2002-03-01 09:47:00 51°13.17 2°50.906 247.2 15 242.4 9.8
2002-03-01 09:48:00 51°13.056 2°50.554 247.3 15 242.6 10.1
2002-03-01 09:49:00 51°12.941 2°50.203 246.8 14.9 242.2 10.2
2002-03-01 09:50:00 51°12.828 2°49.852 246.3 14.9 242 10.4
2002-03-01 09:51:00 51°12.711 2°49.504 246.7 14.8 241.8 10.5
2002-03-01 09:52:00 51°12.596 2°49.156 246.2 14.8 242.3 10.7
2002-03-01 09:53:00 51°12.479 2°48.809 245.3 14.8 241.1 10.9
2002-03-01 09:54:00 51°12.359 2°48.464 245.3 14.9 241 11
2002-03-01 09:55:00 51°12.24 2°48.117 245.5 14.9 240.9 11.2
2002-03-01 09:56:00 51°12.12 2°47.772 245.7 14.9 241 11.1
2002-03-01 09:56:59 51°12.001 2°47.434 245.5 14.9 240.8 11.2
2002-03-01 09:58:00 51°11.882 2°47.084 245.7 14.8 241.1 11
2002-03-01 09:59:00 51°11.763 2°46.742 245.8 14.8 241.2 11
2002-03-01 10:00:00 51°11.643 2°46.396 245 15 240.8 10.9
2002-03-01 10:01:00 51°11.524 2°46.051 245.5 14.9 241.1 10.7
2002-03-01 10:02:00 51°11.405 2°45.706 245.7 14.9 241.3 10.4
2002-03-01 10:03:00 51°11.287 2°45.362 245.2 14.7 241.4 10.1
2002-03-01 10:04:00 51°11.169 2°45.019 245.5 14.7 241 9.7
2002-03-01 10:05:00 51°11.053 2°44.677 245.2 14.6 241.2 9.4
2002-03-01 10:06:00 51°10.936 2°44.338 244.8 14.6 240.6 9
2002-03-01 10:07:00 51°10.817 2°44.003 244.3 14.5 240 8.8
2002-03-01 10:08:00 51°10.698 2°43.673 244 14.4 240.2 8.5
2002-03-01 10:09:00 51°10.581 2°43.344 244.3 14.2 240.1 8.2
2002-03-01 10:10:00 51°10.465 2°43.018 245 14.1 241.1 8.1
2002-03-01 10:11:00 51°10.364 2°42.682 251.8 14 246.8 8
2002-03-01 10:12:00 51°10.269 2°42.341 251.5 14.1 246.6 7.9
2002-03-01 10:13:00 51°10.197 2°41.987 259 14.1 253.5 8
2002-03-01 10:14:00 51°10.135 2°41.625 260.8 14.2 255 8.2
2002-03-01 10:15:00 51°10.074 2°41.26 260.5 14.4 254.8 8.6
2002-03-01 10:16:00 51°10.015 2°40.89 262.2 14.5 256.3 9
2002-03-01 10:17:00 51°9.964 2°40.514 263.3 14.6 257.5 9.3
2002-03-01 10:17:59 51°9.914 2°40.144 263.2 14.6 257.7 9.7
2002-03-01 10:18:59 51°9.863 2°39.766 263.5 14.6 258 10
2002-03-01 10:19:59 51°9.812 2°39.387 263.2 14.6 258 10.2
2002-03-01 10:20:59 51°9.761 2°39.008 263.5 14.7 258 10.8
2002-03-01 10:21:59 51°9.71 2°38.627 263 14.7 257.7 11.2
2002-03-01 10:22:59 51°9.658 2°38.246 263 14.7 257.5 11.9
2002-03-01 10:23:59 51°9.607 2°37.864 263.7 14.8 257.8 12.8
2002-03-01 10:24:59 51°9.555 2°37.48 263.2 14.9 257.6 13.9
2002-03-01 10:25:59 51°9.502 2°37.095 263 14.9 257.7 15.2
2002-03-01 10:26:59 51°9.451 2°36.71 263.7 14.9 258.2 15.5
2002-03-01 10:27:59 51°9.4 2°36.325 263.8 15 258.4 15.5
2002-03-01 10:28:59 51°9.348 2°35.937 263.3 15 257.8 16.2
2002-03-01 10:29:59 51°9.296 2°35.55 263 14.9 257.3 16
2002-03-01 10:30:59 51°9.264 2°35.162 282.3 14.7 273.3 16.6
2002-03-01 10:32:00 51°9.361 2°34.813 313 14.2 302.7 17.5
2002-03-01 10:32:59 51°9.492 2°34.506 314.3 14.3 304.8 19.1
2002-03-01 10:33:59 51°9.628 2°34.197 318 14.2 307.8 13.8
2002-03-01 10:34:59 51°9.818 2°34.059 13.8 12.4 3.8 10.3
2002-03-01 10:35:59 51°9.984 2°34.244 44.3 12.7 40.9 10.3
2002-03-01 10:36:59 51°10.146 2°34.46 43.5 12.8 40.1 10.1
2002-03-01 10:37:59 51°10.304 2°34.683 46.5 12.6 42.6 9.1
2002-03-01 10:38:59 51°10.459 2°34.905 45.7 12.6 42 8.8
2002-03-01 10:39:59 51°10.623 2°35.113 43.7 12.6 39.5 8.9
2002-03-01 10:40:59 51°10.784 2°35.326 45.5 12.7 41.3 9.2
2002-03-01 10:41:59 51°10.949 2°35.533 42.3 12.6 37.8 9.1
2002-03-01 10:42:59 51°11.115 2°35.736 44 12.6 39.1 9.5
2002-03-01 10:43:59 51°11.279 2°35.944 44 12.6 39 9.6
2002-03-01 10:44:59 51°11.444 2°36.149 42.2 12.6 37.3 9.9
2002-03-01 10:45:59 51°11.608 2°36.354 40.7 12.6 36.5 10
2002-03-01 10:46:59 51°11.775 2°36.555 39 12.5 35.9 10
2002-03-01 10:47:59 51°11.941 2°36.755 40.2 12.5 36.8 10.1
2002-03-01 10:48:59 51°12.106 2°36.957 42.3 12.5 38.7 10.2
2002-03-01 10:49:59 51°12.271 2°37.158 41.7 12.5 38.3 10.6
2002-03-01 10:50:59 51°12.438 2°37.358 42.8 12.5 38.2 11.3
2002-03-01 10:52:00 51°12.605 2°37.561 41.2 12.4 36.4 12.1
2002-03-01 10:53:00 51°12.771 2°37.761 41 12.5 37.5 12.7
2002-03-01 10:54:00 51°12.934 2°37.966 41 12.5 38 13.5
2002-03-01 10:55:00 51°13.098 2°38.169 42.2 12.5 38.4 13.9
2002-03-01 10:55:59 51°13.26 2°38.37 41.2 12.5 37.5 14.4
2002-03-01 10:57:00 51°13.429 2°38.574 36.8 12.5 35 14.7
2002-03-01 10:58:00 51°13.621 2°38.701 22 12.5 16 14.8
2002-03-01 10:59:00 51°13.825 2°38.772 15 12.5 10.4 13.7
2002-03-01 10:59:59 51°14.019 2°38.714 332.3 12.4 326.3 11.5
2002-03-01 11:01:00 51°14.127 2°38.411 295.5 13.5 287.4 17.2
2002-03-01 11:02:00 51°14.117 2°38.045 263.8 14.3 256.7 18.7
2002-03-01 11:03:00 51°14.026 2°37.69 249.7 14.6 244 19.8
2002-03-01 11:04:00 51°13.92 2°37.34 250.2 14.6 244.5 20.5
2002-03-01 11:05:00 51°13.818 2°36.99 250.8 14.5 245.3 20.7
2002-03-01 11:06:00 51°13.716 2°36.643 250.2 14.4 244.6 20
2002-03-01 11:07:00 51°13.614 2°36.296 250.2 14.4 244.9 19.8
2002-03-01 11:08:00 51°13.503 2°35.958 245.3 14.4 240.3 17.6
2002-03-01 11:09:00 51°13.386 2°35.627 246.7 14.3 241.2 17.8
2002-03-01 11:09:59 51°13.277 2°35.298 250.5 14.1 244.7 17.8
2002-03-01 11:11:00 51°13.177 2°34.951 250.7 14.2 244.5 18
2002-03-01 11:12:00 51°13.075 2°34.611 250.7 14.2 244.5 18.1
2002-03-01 11:13:00 51°12.975 2°34.277 250.7 14 245.1 17.6
2002-03-01 11:13:59 51°12.876 2°33.95 250 14 244.5 16.8
2002-03-01 11:14:59 51°12.774 2°33.618 250.7 13.8 243.6 16.2
2002-03-01 11:16:00 51°12.671 2°33.285 250.2 13.8 242.9 15
2002-03-01 11:16:59 51°12.569 2°32.963 250.2 13.8 242.7 16.3
2002-03-01 11:18:00 51°12.46 2°32.627 250.5 14.1 243.1 17.2
2002-03-01 11:18:59 51°12.355 2°32.298 250 14.2 242.4 18.4
2002-03-01 11:19:59 51°12.251 2°31.961 253.2 14.2 245 19.8
2002-03-01 11:20:59 51°12.152 2°31.625 252.3 13.9 244.8 21.4
2002-03-01 11:21:59 51°12.054 2°31.289 252.3 13.9 244.9 22.4
2002-03-01 11:22:59 51°11.957 2°30.953 252.2 14 244.8 23.2
2002-03-01 11:23:59 51°11.859 2°30.616 252.7 14 245.1 -999
2002-03-01 11:24:59 51°11.761 2°30.281 252.2 13.9 244.8 23.9
2002-03-01 11:25:59 51°11.666 2°29.948 252.5 13.8 245.5 23.9
2002-03-01 11:27:00 51°11.57 2°29.61 252.3 13.8 245.9 -999
2002-03-01 11:28:01 51°11.473 2°29.275 252.5 13.6 245.5 -999
2002-03-01 11:29:01 51°11.381 2°28.947 252.3 13.5 246 -999
2002-03-01 11:30:01 51°11.293 2°28.62 256.2 13.4 248.8 -999
2002-03-01 11:30:59 51°11.229 2°28.298 265.3 13.1 258.1 22.7
2002-03-01 11:31:59 51°11.22 2°27.963 274.3 12.4 269.8 23.4
2002-03-01 11:32:59 51°11.204 2°27.639 269.8 12.3 265 22.7
2002-03-01 11:34:00 51°11.187 2°27.31 270.2 12.3 265.3 -999
2002-03-01 11:34:59 51°11.17 2°26.991 270 12.3 264.7 -999
2002-03-01 11:35:59 51°11.153 2°26.665 270 12.4 264.2 22.7
2002-03-01 11:36:59 51°11.137 2°26.334 272.5 12.5 265.7 19.5
2002-03-01 11:37:59 51°11.123 2°26.005 272.2 12.3 265.4 17.4
2002-03-01 11:38:59 51°11.105 2°25.68 273.2 12.4 265.1 15.1
2002-03-01 11:39:59 51°11.154 2°25.373 307.5 12.3 301.8 20.6
2002-03-01 11:41:00 51°11.346 2°25.26 4 13   -999
2002-03-01 11:42:00 51°11.565 2°25.257 0.3 13.2 358.8 26.7
2002-03-01 11:43:01 51°11.789 2°25.255 4.8 13.2 1.3 -999
2002-03-01 11:44:00 51°12.005 2°25.26 2.2 13.2 359.8 -999
2002-03-01 11:45:00 51°12.225 2°25.263 3.7 13.2 1.4 -999
2002-03-01 11:46:00 51°12.446 2°25.266 4.2 13.2   27.6
2002-03-01 11:47:01 51°12.671 2°25.269 3.3 13.3 1.8 -999
2002-03-01 11:48:01 51°12.891 2°25.292 19.7 13.4 15.4 -999
2002-03-01 11:49:01 51°13.06 2°25.521 54.7 13.8 52.4 -999
2002-03-01 11:50:00 51°13.198 2°25.807 51.8 13.8 50.2 -999
2002-03-01 11:51:01 51°13.344 2°26.101 55.3 13.9 53 -999
2002-03-01 11:52:00 51°13.479 2°26.394 54.7 13.8 53.4 -999
2002-03-01 11:53:01 51°13.611 2°26.707 59.8 14 58 -999
2002-03-01 11:54:00 51°13.734 2°27.012 59.5 13.9 56.3 -999
2002-03-01 11:55:00 51°13.865 2°27.317 58 14 55.2 -999
2002-03-01 11:56:01 51°13.995 2°27.633 57 14 55.5 -999
2002-03-01 11:57:01 51°14.125 2°27.942 57.5 14.1 56.9 -999
2002-03-01 11:58:01 51°14.255 2°28.253 59.2 14.2 56.7 -999
2002-03-01 11:59:01 51°14.386 2°28.567 58.8 14.2 56.6 -999
2002-03-01 12:00:01 51°14.519 2°28.879 59 14.3 56.1 -999
2002-03-01 12:01:01 51°14.651 2°29.193 58.5 14.2 56.2 -999
2002-03-01 12:02:01 51°14.782 2°29.507 58 14.2 56.2 -999
2002-03-01 12:03:01 51°14.915 2°29.821 58.8 14.4 56.7 -999
2002-03-01 12:04:01 51°15.049 2°30.135 59.3 14.4 56.4 -999
2002-03-01 12:05:01 51°15.183 2°30.449 59.2 14.4 55.2 -999
2002-03-01 12:06:01 51°15.317 2°30.765 59 14.4 55.4 -999
2002-03-01 12:07:01 51°15.452 2°31.082 57 14.5 54.7 -999
2002-03-01 12:08:01 51°15.585 2°31.401 58 14.5 56.6 -999
2002-03-01 12:09:01 51°15.722 2°31.718 56.8 14.5 55.3 -999
2002-03-01 12:10:01 51°15.858 2°32.037 59 14.5 56.8 -999
2002-03-01 12:11:01 51°15.997 2°32.353 57 14.6 54.2 -999
2002-03-01 12:11:59 51°16.128 2°32.665 57 14.7 56.1 22.8
2002-03-01 12:12:59 51°16.264 2°32.987 59.7 14.6 57.3 21.2
2002-03-01 12:13:59 51°16.285 2°33.357 117 14.6 110.7 11.8
2002-03-01 12:14:59 51°16.105 2°33.617 154.8 15.1 145.9 10.8
2002-03-01 12:16:00 51°15.892 2°33.836 153.3 14.9 144.4 14
2002-03-01 12:16:59 51°15.689 2°34.044 155 14.5 146.4 23.6
2002-03-01 12:18:00 51°15.481 2°34.236 154.7 14.2 145.9 -999
2002-03-01 12:19:01 51°15.343 2°34.523 103.3 13.7 101.7 -999
2002-03-01 12:20:00 51°15.466 2°34.81 42 14.2 39.1 -999
2002-03-01 12:21:00 51°15.651 2°35.058 42.2 14.5 40 -999
2002-03-01 12:22:00 51°15.826 2°35.324 48.3 14.5 44.6 -999
2002-03-01 12:23:00 51°16.001 2°35.59 44.8 14.5 42.2 -999
2002-03-01 12:24:00 51°16.175 2°35.855 47 14.5 44.6 -999
2002-03-01 12:25:00 51°16.351 2°36.118 47.5 14.5 43.2 -999
2002-03-01 12:26:00 51°16.525 2°36.384 45.3 14.5 44.2 -999
2002-03-01 12:27:00 51°16.7 2°36.648 47.5 14.5 44.1 -999
2002-03-01 12:28:00 51°16.876 2°36.913 46 14.5 42.4 -999
2002-03-01 12:29:00 51°17.05 2°37.179 46.8 14.6 44.7 -999
2002-03-01 12:30:00 51°17.244 2°37.354 355.3 12.9   -999
2002-03-01 12:31:00 51°17.391 2°37.136 305.2 12.7 304.5 -999
2002-03-01 12:32:01 51°17.508 2°36.847 301.5 12.7 300.8 -999
2002-03-01 12:32:59 51°17.616 2°36.572 303.7 12.6 302.8 23.9
2002-03-01 12:33:59 51°17.724 2°36.291 303.3 12.3 301.3 17.5
2002-03-01 12:34:59 51°17.832 2°36.018 302.7 12.1 301.9 14.4
2002-03-01 12:35:59 51°17.939 2°35.75 302.3 12.1 302.7 19.1
2002-03-01 12:36:59 51°18.05 2°35.477 304.5 12.3 303.9 20.9
2002-03-01 12:38:00 51°18.166 2°35.2 304.2 12.4 304.6 -999
2002-03-01 12:39:00 51°18.283 2°34.928 302.8 12.4 303.8 -999
2002-03-01 12:40:00 51°18.401 2°34.657 305.2 12.5 305.2 -999
2002-03-01 12:41:01 51°18.592 2°34.522 5.3 13.5 3.3 -999
2002-03-01 12:42:00 51°18.789 2°34.724 43.8 14.9 41.8 -999
2002-03-01 12:43:00 51°18.961 2°35.006 50.2 15 47.9 23.6
2002-03-01 12:44:00 51°19.117 2°35.316 56.3 15 54.3 -999
2002-03-01 12:45:01 51°19.269 2°35.641 55.7 14.9 53.1 -999
2002-03-01 12:46:00 51°19.42 2°35.947 56 14.9 52.1 -999
2002-03-01 12:47:00 51°19.571 2°36.264 54.8 15.1 53.2 -999
2002-03-01 12:47:59 51°19.72 2°36.577 56.2 15.1 53.2 24.3
2002-03-01 12:49:00 51°19.875 2°36.897 55.8 14.9 53 24.3
2002-03-01 12:50:00 51°20.027 2°37.211 55 15 51.2 -999
2002-03-01 12:51:00 51°20.179 2°37.527 55.2 15 52.5 -999
2002-03-01 12:52:00 51°20.329 2°37.843 56 14.9 53.2 -999
2002-03-01 12:53:00 51°20.482 2°38.154 56.2 14.9 52.1 -999
2002-03-01 12:54:01 51°20.634 2°38.472 53.3 14.8 51.4 -999
2002-03-01 12:55:01 51°20.785 2°38.786 55.2 15 52.8 -999
2002-03-01 12:56:01 51°20.941 2°39.093 50.8 14.9 48.1 -999
2002-03-01 12:57:01 51°21.149 2°39.26 15 14.1 14.8 -999
2002-03-01 12:58:01 51°21.374 2°39.37 22 14.2 20 -999
2002-03-01 12:59:01 51°21.595 2°39.501 20.2 14.2 19.7 -999
2002-03-01 13:00:00 51°21.815 2°39.627 21.7 14.2 20.1 -999
2002-03-01 13:01:00 51°22.037 2°39.754 19.2 14.2 18.9 -999
2002-03-01 13:02:00 51°22.26 2°39.884 19.7 14.3 20.1 -999
2002-03-01 13:03:01 51°22.491 2°40.001 18.2 14.3 16.7 -999
2002-03-01 13:04:00 51°22.717 2°40.105 14.8 14.4 15.1 -999
2002-03-01 13:05:01 51°22.952 2°40.204 14.5 14.4 13.5 -999
2002-03-01 13:06:01 51°23.184 2°40.304 14.8 14.4 16 -999
2002-03-01 13:07:01 51°23.416 2°40.393 17 14.5 15.7 -999
2002-03-01 13:08:00 51°23.643 2°40.504 18.7 14.5 18 -999
2002-03-01 13:09:01 51°23.876 2°40.623 18.5 14.4 16.8 -999
2002-03-01 13:10:01 51°24.105 2°40.736 17.8 14.4 17.9 -999
2002-03-01 13:11:01 51°24.336 2°40.849 19 14.5 16.7 -999
2002-03-01 13:12:00 51°24.564 2°40.922 6.5 14.2 6.9 -999
2002-03-01 13:13:00 51°24.797 2°40.959 2.7 13.9 2.4 -999
2002-03-01 13:14:00 51°25.027 2°40.928 356.3 13.9 355 -999
2002-03-01 13:15:00 51°25.261 2°40.929 1.7 14.1 2 -999
2002-03-01 13:16:01 51°25.496 2°40.921 357.2 13.8 356.3 -999
2002-03-01 13:17:00 51°25.722 2°40.986 25.7 14.5 23.7 -999
2002-03-01 13:18:00 51°25.932 2°41.18 28.7 14.6 26.9 -999
2002-03-01 13:19:00 51°26.136 2°41.399 45.7 15 41.5 -999
2002-03-01 13:20:01 51°26.298 2°41.713 54.7 15.2 50.6 -999
2002-03-01 13:21:01 51°26.449 2°42.036 57.7 15.2 53.6 -999
2002-03-01 13:22:01 51°26.596 2°42.363 58.2 15.2 54.7 -999
2002-03-01 13:23:00 51°26.741 2°42.684 58.7 15.2 55 -999
2002-03-01 13:24:00 51°26.877 2°43.024 60.8 15.1 57.3 -999
2002-03-01 13:25:01 51°27.008 2°43.376 65.3 15.1 60.9 -999
2002-03-01 13:26:00 51°27.043 2°43.753 111.8 14.7 102.4 -999
2002-03-01 13:27:00 51°26.956 2°44.114 128.8 14.5 118.7 -999
2002-03-01 13:28:00 51°26.818 2°44.426 138.2 14.1 127.2 -999
2002-03-01 13:29:00 51°26.664 2°44.708 146.5 14 136.7 -999
2002-03-01 13:30:00 51°26.48 2°44.923 161.2 13.6 149.6 30.5
2002-03-01 13:31:00 51°26.286 2°45.102 160 13.5 149.8 -999
2002-03-01 13:32:01 51°26.093 2°45.298 158 13.4 145.9 -999
2002-03-01 13:33:01 51°25.892 2°45.441 172 13 162.4 -999
2002-03-01 13:34:00 51°25.696 2°45.594 161 13.3 149.2 -999
2002-03-01 13:35:00 51°25.498 2°45.761 164.2 13.4 154.2 -999
2002-03-01 13:36:00 51°25.297 2°45.908 168 13.1 156.3 -999
2002-03-01 13:37:00 51°25.099 2°46.07 164.7 13.4 152.3 -999
2002-03-01 13:38:00 51°24.897 2°46.227 166.5 13.6 154.6 -999
2002-03-01 13:39:00 51°24.726 2°46.455 127.3 14 118.6 -999
2002-03-01 13:40:00 51°24.765 2°46.821 67.7 15.1 62.5 -999
2002-03-01 13:41:00 51°24.888 2°47.178 66.8 15.3 61.8 -999
2002-03-01 13:42:00 51°25.011 2°47.537 68.2 15.3 61.9 -999
2002-03-01 13:43:00 51°25.132 2°47.897 68 15.4 62.2 -999
2002-03-01 13:44:00 51°25.255 2°48.258 65.2 15.5 59.3 -999
2002-03-01 13:45:00 51°25.385 2°48.612 65.3 15.5 60 -999
2002-03-01 13:46:00 51°25.513 2°48.971 65.5 15.5 59.8 -999
2002-03-01 13:47:00 51°25.643 2°49.331 65 15.6 60.3 -999
2002-03-01 13:48:00 51°25.771 2°49.691 65 15.6 60.4 -999
2002-03-01 13:49:00 51°25.899 2°50.052 65.5 15.6 61.3 26
2002-03-01 13:50:00 51°26.085 2°50.266 357.8 13.5 2.5 -999
2002-03-01 13:51:00 51°26.276 2°50.112 326.5 13.3 329 -999
2002-03-01 13:52:00 51°26.468 2°49.932 328.3 13.2 329.3 -999
2002-03-01 13:52:59 51°26.666 2°49.773 333.5 13.6 335.4 23.4
2002-03-01 13:54:00 51°26.871 2°49.608 330.2 13.6 331.6 24
2002-03-01 13:55:00 51°27.073 2°49.444 332.2 13.6 334.3 -999
2002-03-01 13:56:00 51°27.276 2°49.281 330.8 13.6 332.9 -999
2002-03-01 13:57:01 51°27.48 2°49.113 332 13.5 332.7 28.2
2002-03-01 13:58:00 51°27.678 2°48.956 332.3 13.5 334.2 -999
2002-03-01 13:59:00 51°27.881 2°48.798 331 13.5 333.6 -999
2002-03-01 14:00:00 51°28.081 2°48.639 331.3 13.3 333.8 -999
2002-03-01 14:01:00 51°28.286 2°48.487 331.8 13.6 336.1 -999
2002-03-01 14:02:00 51°28.498 2°48.364 353.7 14 353.2 -999
2002-03-01 14:03:00 51°28.701 2°48.537 61.5 14.9 55.5 -999
2002-03-01 14:04:01 51°28.795 2°48.918 78.2 15.3 72.3 -999
2002-03-01 14:05:00 51°28.87 2°49.304 79 15.5 72.8 -999
2002-03-01 14:06:01 51°28.949 2°49.704 78.7 15.5 72.2 -999
2002-03-01 14:07:01 51°29.027 2°50.099 78.2 15.4 72.7 30.6
2002-03-01 14:08:02 51°29.105 2°50.497 78.8 15.3 73.3 -999
2002-03-01 14:09:01 51°29.181 2°50.881 77.5 15.4 72.1 -999
2002-03-01 14:10:01 51°29.257 2°51.273 78.5 15.4 73.3 -999
2002-03-01 14:11:01 51°29.333 2°51.663 78.7 15.4 73.2 -999
2002-03-01 14:12:02 51°29.388 2°52.062 97.3 14.9 88.6 -999
2002-03-01 14:13:01 51°29.285 2°52.381 150.7 13.5 137.7 -999
2002-03-01 14:14:02 51°29.087 2°52.55 163.8 13.1 153.1 -999
2002-03-01 14:15:01 51°28.895 2°52.705 166.5 12.9 155.6 -999
2002-03-01 14:16:01 51°28.695 2°52.851 165.3 13.3 154.3 -999
2002-03-01 14:17:02 51°28.494 2°53 165.5 13 153.1 -999
2002-03-01 14:18:01 51°28.3 2°53.141 168.8 13 158.9 -999
2002-03-01 14:19:02 51°28.094 2°53.251 170.8 12.9 159 -999
2002-03-01 14:20:01 51°27.898 2°53.378 167 12.9 158.5 23.9
2002-03-01 14:21:01 51°27.699 2°53.514 167.5 12.8 157.6 23.8
2002-03-01 14:22:01 51°27.501 2°53.642 167.2 13 157.1 -999
2002-03-01 14:23:01 51°27.303 2°53.777 167.3 13 156.6 -999
2002-03-01 14:24:01 51°27.107 2°53.919 168 13 156.8 -999
2002-03-01 14:25:01 51°26.908 2°54.063 166.2 13.3 154.6 -999
2002-03-01 14:26:01 51°26.711 2°54.204 164.2 12.9 153.5 -999
2002-03-01 14:27:02 51°26.51 2°54.353 166.8 13 156 -999
2002-03-01 14:28:01 51°26.31 2°54.49 165.8 13.1 154 -999
2002-03-01 14:29:01 51°26.111 2°54.641 166.7 13.1 154.1 -999
2002-03-01 14:30:01 51°25.908 2°54.774 171.2 13.2 157.7 -999
2002-03-01 14:31:00 51°25.711 2°54.902 168 13 159.8 22.6
2002-03-01 14:32:00 51°25.515 2°55.041 167.7 12.8 158 21.4
2002-03-01 14:33:00 51°25.314 2°55.165 166.5 12.9 157.2 20.8
2002-03-01 14:34:00 51°25.116 2°55.306 164.2 13 155.3 21.7
2002-03-01 14:35:01 51°24.912 2°55.429 169.2 13 160.5 -999
2002-03-01 14:36:01 51°24.71 2°55.562 167.3 13.4 157.1 -999
2002-03-01 14:37:02 51°24.504 2°55.704 166.5 13.3 157 27.3
2002-03-01 14:38:01 51°24.305 2°55.754 198.2 12.2 188.7 -999
2002-03-01 14:39:01 51°24.103 2°55.705 189.5 12.3 181.5 -999
2002-03-01 14:40:00 51°23.902 2°55.765 175 12.7 165.7 22.3
2002-03-01 14:41:01 51°23.692 2°55.828 181.5 12.8 171.5 20.3
2002-03-01 14:42:00 51°23.489 2°55.883 179.8 12.8 169.5 22.2
2002-03-01 14:43:00 51°23.281 2°55.946 180.8 12.7 169.5 22.8
2002-03-01 14:44:01 51°23.069 2°56.001 182.3 12.9 171.5 21.9
2002-03-01 14:45:01 51°22.864 2°56.072 178.7 12.2 168.6 21.2
2002-03-01 14:46:00 51°22.662 2°56.123 180.3 12.6 171.4 21.1
2002-03-01 14:47:00 51°22.449 2°56.183 179 12.9 170.9 21.2
2002-03-01 14:48:01 51°22.231 2°56.242 178 13 169.1 21
2002-03-01 14:49:00 51°22.026 2°56.305 177.5 12.6 167.2 20.7
2002-03-01 14:50:00 51°21.817 2°56.368 179 13 169 20.4
2002-03-01 14:51:00 51°21.603 2°56.433 179.8 13 171.2 19.6
2002-03-01 14:52:00 51°21.39 2°56.497 179 12.9 169.4 18.4
2002-03-01 14:53:00 51°21.18 2°56.558 177.7 13 167.4 17.4
2002-03-01 14:54:00 51°20.973 2°56.622 179.2 12.6 169.7 16.5
2002-03-01 14:55:01 51°20.762 2°56.674 178.3 12.9 168.9 15.9
2002-03-01 14:56:01 51°20.552 2°56.735 178 12.6 169.8 15.7
2002-03-01 14:57:01 51°20.341 2°56.788 178.3 13.3 170.2 15.5
2002-03-01 14:58:00 51°20.133 2°56.838 178.5 12.9 172.1 15
2002-03-01 14:59:00 51°19.92 2°56.897 175.2 13 167.5 14.6
2002-03-01 15:00:00 51°19.715 2°56.884 195.7 11.9 189.4 14.3
2002-03-01 15:01:00 51°19.517 2°56.8 202.7 13 197.8 14
2002-03-01 15:02:01 51°19.32 2°56.68 211.8 12.3 207.6 13.7
2002-03-01 15:03:01 51°19.177 2°56.456 238.2 12.3 235.4 13.5
2002-03-01 15:04:00 51°19.092 2°56.158 249.3 12.8 248.1 13.7
2002-03-01 15:05:00 51°19.025 2°55.842 253.3 12.5 252.6 13.8
2002-03-01 15:06:01 51°18.959 2°55.525 250 12.2 248.5 14
2002-03-01 15:07:01 51°18.889 2°55.22 250.8 12.2 250 14
2002-03-01 15:08:01 51°18.825 2°54.903 251.5 12.6 250.7 14
2002-03-01 15:09:00 51°18.755 2°54.599 252 12.4 251.5 14.1
2002-03-01 15:10:01 51°18.69 2°54.285 252.2 12.2 252.1 14.2
2002-03-01 15:11:01 51°18.621 2°53.977 252.8 12.5 253.9 14.1
2002-03-01 15:12:01 51°18.555 2°53.665 249.8 12.3 249.6 14.2
2002-03-01 15:13:00 51°18.491 2°53.356 253.7 12.4 253.1 14.1
2002-03-01 15:14:01 51°18.425 2°53.04 252.3 12.4 251.8 14.2
2002-03-01 15:15:01 51°18.343 2°52.736 244.7 12.5 243.5 14
2002-03-01 15:16:00 51°18.256 2°52.439 245.7 12.5 246 13.9
2002-03-01 15:17:01 51°18.123 2°52.221 200.8 11.3 198.7 13.7
2002-03-01 15:18:01 51°17.917 2°52.222 180.8 12.6 175.9 13.4
2002-03-01 15:19:01 51°17.704 2°52.259 179 13.3 173.2 13.3
2002-03-01 15:20:00 51°17.499 2°52.287 180 12.5 174.4 13.4
2002-03-01 15:21:01 51°17.289 2°52.343 169.3 12.7 164.6 13.2
2002-03-01 15:22:00 51°17.093 2°52.472 161 13.2 156 12.6
2002-03-01 15:23:00 51°16.899 2°52.638 157.2 13.4 151.5 12.6
2002-03-01 15:24:01 51°16.702 2°52.788 161.8 12.9 154.8 13.7
2002-03-01 15:25:01 51°16.525 2°52.994 147.5 13.5 139.5 14.9
2002-03-01 15:26:01 51°16.343 2°53.193 155.8 13.2 147 15.5
2002-03-01 15:27:00 51°16.159 2°53.377 151.8 13.5 143.6 14.8
2002-03-01 15:28:01 51°15.969 2°53.571 151.2 13.6 145.8 14.6
2002-03-01 15:29:01 51°15.777 2°53.746 159.2 13.1 153.6 14
2002-03-01 15:30:01 51°15.591 2°53.94 153.2 13.1 147 13.4
2002-03-01 15:31:01 51°15.398 2°54.102 160 13.1 155.9 12.3
2002-03-01 15:32:01 51°15.21 2°54.287 154.8 13.2 149.4 11.8
2002-03-01 15:33:00 51°15.021 2°54.449 156.3 13.3 150.6 11.3
2002-03-01 15:34:01 51°14.83 2°54.631 156.8 13 150.1 12.2
2002-03-01 15:35:01 51°14.638 2°54.808 158 13.3 151.7 12.2
2002-03-01 15:36:01 51°14.449 2°54.967 159.2 12.2 154.3 12.6
2002-03-01 15:37:00 51°14.313 2°55.165 134 10.5 131.3 13
2002-03-01 15:38:00 51°14.211 2°55.338 143.5 8.3 140.5 13.2
2002-03-01 15:39:01 51°14.095 2°55.433 158 6.9 155.4 13
2002-03-01 15:40:05 51°13.998 2°55.503 158.2 6 155.6 -999
2002-03-01 15:41:05 51°13.889 2°55.578 158.3 7.6 156.3 -999
2002-03-01 15:42:05 51°13.782 2°55.668 147 6.4 145.6 -999
2002-03-01 15:43:05 51°13.729 2°55.759 128.7 3.8 127.4 -999
2002-03-01 15:44:05 51°13.704 2°55.832 114.2 2.8 110.8 -999
2002-03-01 15:45:05 51°13.689 2°55.895 111.7 2.2 109.9 -999
2002-03-01 15:46:05 51°13.688 2°55.903 125.3 0.4 86.3 -999
2002-03-01 15:47:05 51°13.688 2°55.904 120.5     -999